createdAt,value
2023-02-13T02:13:02.583Z,2.53
2023-02-13T02:15:53.944Z,3.78
2023-02-13T02:19:08.681Z,3.03
2023-02-13T02:22:59.089Z,3.30
2023-02-13T02:27:02.355Z,3.38
2023-02-13T02:30:42.956Z,4.18
2023-02-13T02:38:05.785Z,3.47
2023-02-13T02:40:55.703Z,3.78
2023-02-13T02:44:15.912Z,3.38
2023-02-13T02:47:42.104Z,3.70
2023-02-13T02:50:46.483Z,3.30
2023-02-13T02:53:39.514Z,3.13
2023-02-13T02:56:22.419Z,3.55
2023-02-13T03:00:03.949Z,3.53
2023-02-13T03:03:55.959Z,3.35
2023-02-13T03:06:35.003Z,3.88
2023-02-13T03:10:32.499Z,3.40
2023-02-13T03:16:35.034Z,3.30
2023-02-13T04:34:58.059Z,3.10
2023-02-13T08:48:09.811Z,9.80
2023-02-13T08:50:37.447Z,8.05
2023-02-13T08:53:07.974Z,8.13
2023-02-13T08:55:39.645Z,7.20
2023-02-13T08:58:07.026Z,6.68
2023-02-13T09:00:43.330Z,6.15
2023-02-13T09:03:22.260Z,7.93
2023-02-13T09:41:48.580Z,4.30
2023-02-13T09:44:42.258Z,4.90
2023-02-13T09:52:13.033Z,6.25
2023-02-13T09:56:04.828Z,6.45
2023-02-13T09:58:48.166Z,6.60
2023-02-13T10:01:21.721Z,5.00
2023-02-13T10:04:02.050Z,5.95
2023-02-13T10:06:50.226Z,5.80
2023-02-13T10:09:59.130Z,5.43
2023-02-13T10:12:57.781Z,5.55
2023-02-13T10:15:33.489Z,5.80
2023-02-13T10:18:13.102Z,6.30
2023-02-13T10:20:54.311Z,5.85
2023-02-13T10:23:40.762Z,5.65
2023-02-13T10:26:20.881Z,6.55
2023-02-13T10:29:54.265Z,6.63
2023-02-13T10:35:04.178Z,6.13
2023-02-13T10:37:51.511Z,5.85
2023-02-13T10:40:36.902Z,7.03
2023-02-13T10:43:21.799Z,6.20
2023-02-13T10:46:22.072Z,5.90
2023-02-13T10:49:32.867Z,5.32
2023-02-13T10:52:00.112Z,4.85
2023-02-13T10:54:48.048Z,5.28
2023-02-13T10:57:26.221Z,4.57
2023-02-13T11:00:24.156Z,5.10
2023-02-13T11:02:52.705Z,5.07
2023-02-13T11:06:17.873Z,4.22
2023-02-13T11:21:53.369Z,3.38
2023-02-13T11:24:28.511Z,3.20
2023-02-13T11:27:09.145Z,3.88
2023-02-13T11:29:41.486Z,3.60
2023-02-13T11:32:19.416Z,3.60
2023-02-13T11:35:07.257Z,4.70
2023-02-13T11:37:41.775Z,4.75
2023-02-13T11:40:32.994Z,4.80
2023-02-13T11:43:03.260Z,4.53
2023-02-13T11:45:33.975Z,4.47
2023-02-13T11:48:01.185Z,5.45
2023-02-13T11:50:35.121Z,4.90
2023-02-13T11:53:08.301Z,4.15
2023-02-13T11:55:40.614Z,4.25
2023-02-13T11:58:10.598Z,4.20
2023-02-13T12:00:43.990Z,4.53
2023-02-13T12:04:12.409Z,4.72
2023-02-13T12:06:40.798Z,4.05
2023-02-13T12:09:15.907Z,4.22
2023-02-13T12:12:40.980Z,5.75
2023-02-13T12:19:43.478Z,5.82
2023-02-13T12:23:11.208Z,4.53
2023-02-13T12:26:09.176Z,4.20
2023-02-13T12:28:51.875Z,3.33
2023-02-13T12:31:49.142Z,3.83
2023-02-13T12:34:45.072Z,3.08
2023-02-13T12:37:47.420Z,3.33
2023-02-13T12:40:34.487Z,5.47
2023-02-13T12:56:21.548Z,4.75
2023-02-13T12:59:40.606Z,5.40
2023-02-13T13:19:59.962Z,7.97
2023-02-13T13:22:42.962Z,8.40
2023-02-13T13:25:40.924Z,7.15
2023-02-13T13:28:24.732Z,7.13
2023-02-13T13:31:03.355Z,5.82
2023-02-13T13:33:34.707Z,6.53
2023-02-13T13:36:45.392Z,5.97
2023-02-13T13:39:24.808Z,5.80
2023-02-13T13:42:02.530Z,6.35
2023-02-13T13:45:06.450Z,6.70
2023-02-13T13:48:11.448Z,6.20
2023-02-13T13:50:41.950Z,6.03
2023-02-13T13:53:11.087Z,6.03
2023-02-13T13:55:54.052Z,6.85
2023-02-13T13:59:11.127Z,7.32
2023-02-13T14:02:40.560Z,7.07
2023-02-13T14:05:53.879Z,6.95
2023-02-13T14:08:39.783Z,6.75
2023-02-13T14:11:29.948Z,6.95
2023-02-13T14:13:57.606Z,6.20
2023-02-13T14:17:02.116Z,6.15
2023-02-13T14:19:46.864Z,6.35
2023-02-13T14:22:56.331Z,7.10
2023-02-13T14:25:35.156Z,6.35
2023-02-13T14:28:17.789Z,5.90
2023-02-13T14:31:09.172Z,5.28
2023-02-13T14:33:36.522Z,5.10
2023-02-13T14:36:41.240Z,5.60
2023-02-13T14:39:17.017Z,5.05
2023-02-13T14:42:10.269Z,5.32
2023-02-13T14:48:40.652Z,4.57
2023-02-13T14:52:09.583Z,3.80
2023-02-13T14:56:18.842Z,4.78
2023-02-13T15:02:38.390Z,4.70
2023-02-13T15:05:14.849Z,4.78
2023-02-13T15:11:41.467Z,5.03
2023-02-13T15:14:50.182Z,4.47
2023-02-13T15:18:02.494Z,5.00
2023-02-13T15:20:39.114Z,5.63
2023-02-13T15:23:06.898Z,4.88
2023-02-13T15:25:40.746Z,4.80
2023-02-13T15:28:17.419Z,5.90
2023-02-13T15:31:30.456Z,5.55
2023-02-13T15:33:58.084Z,4.85
2023-02-13T15:36:33.995Z,4.88
2023-02-13T15:42:13.149Z,5.07
2023-02-13T15:44:40.934Z,5.22
2023-02-13T15:47:29.154Z,4.85
2023-02-13T15:50:01.438Z,4.63
2023-02-13T15:52:39.871Z,3.92
2023-02-13T15:55:07.000Z,4.07
2023-02-13T15:57:34.611Z,3.83
2023-02-13T16:00:03.028Z,4.13
2023-02-13T16:02:49.796Z,3.20
2023-02-13T16:05:29.356Z,3.55
2023-02-13T16:08:36.529Z,3.25
2023-02-13T16:11:17.239Z,4.50
2023-02-13T16:14:06.233Z,4.00
2023-02-13T16:16:55.683Z,3.80
2023-02-13T16:19:27.167Z,3.28
2023-02-13T16:21:56.500Z,2.97
2023-02-13T16:24:25.178Z,3.97
2023-02-13T16:26:52.807Z,3.40
2023-02-13T16:29:22.857Z,3.20
2023-02-13T16:31:53.950Z,3.22
2023-02-13T16:34:32.987Z,3.60
2023-02-13T16:38:20.220Z,3.10
2023-02-13T16:40:47.727Z,2.88
2023-02-13T16:43:34.594Z,3.33
2023-02-13T16:46:25.035Z,3.55
2023-02-13T16:48:58.742Z,4.57
2023-02-13T16:51:44.676Z,5.05
2023-02-13T16:54:11.709Z,4.60
2023-02-13T16:56:40.785Z,6.03
2023-02-13T17:05:02.283Z,5.03
2023-02-13T17:07:34.679Z,3.88
2023-02-13T17:12:52.211Z,4.30
2023-02-13T17:23:32.570Z,3.63
2023-02-13T17:26:00.139Z,4.70
2023-02-13T17:28:55.759Z,4.20
2023-02-13T17:31:29.182Z,4.25
2023-02-13T17:33:58.774Z,4.30
2023-02-13T17:36:30.972Z,4.50
2023-02-13T17:39:00.111Z,4.97
2023-02-13T17:41:32.012Z,5.20
2023-02-13T17:44:02.451Z,4.97
2023-02-13T17:46:32.954Z,5.68
2023-02-13T17:49:17.200Z,6.20
2023-02-13T17:51:47.105Z,6.40
2023-02-13T17:54:39.430Z,6.25
2023-02-13T17:57:06.654Z,5.90
2023-02-13T17:59:51.889Z,5.97
2023-02-13T18:02:38.696Z,7.70
2023-02-13T18:09:51.727Z,6.28
2023-02-13T18:12:25.434Z,5.50
2023-02-13T18:15:13.458Z,6.20
2023-02-13T18:18:05.265Z,6.43
2023-02-13T18:23:36.982Z,5.75
2023-02-13T18:34:49.039Z,5.28
2023-02-13T18:37:24.447Z,5.25
2023-02-13T18:40:22.567Z,6.38
2023-02-13T18:43:24.881Z,5.68
2023-02-13T18:49:28.039Z,5.57
2023-02-13T18:52:07.400Z,5.30
2023-02-13T18:54:43.486Z,5.55
2023-02-13T18:57:18.228Z,4.88
2023-02-13T19:00:00.567Z,5.30
2023-02-13T19:02:33.217Z,4.78
2023-02-13T19:05:03.442Z,5.65
2023-02-13T19:07:34.012Z,6.45
2023-02-13T19:14:08.358Z,5.57
2023-02-13T19:16:45.415Z,5.85
2023-02-13T19:20:46.219Z,4.82
2023-02-13T19:23:51.828Z,4.80
2023-02-13T19:30:31.971Z,4.20
2023-02-13T19:41:36.830Z,4.15
2023-02-13T19:44:45.350Z,4.20
2023-02-13T19:47:13.050Z,4.90
2023-02-13T19:52:57.388Z,4.88
2023-02-13T19:55:25.847Z,4.45
2023-02-13T19:58:02.091Z,4.68
2023-02-13T20:00:29.300Z,4.93
2023-02-13T20:09:33.513Z,4.47
2023-02-13T20:12:17.040Z,5.13
2023-02-13T20:14:44.186Z,5.10
2023-02-13T20:17:23.974Z,4.97
2023-02-13T20:19:54.463Z,4.45
2023-02-13T20:22:31.780Z,4.97
2023-02-13T20:25:22.348Z,4.50
2023-02-13T20:27:50.953Z,4.50
2023-02-13T20:30:49.649Z,4.85
2023-02-13T20:33:31.232Z,4.90
2023-02-13T20:37:37.618Z,5.78
2023-02-13T20:44:05.218Z,4.70
2023-02-13T20:57:47.825Z,4.85
2023-02-13T21:06:16.425Z,3.70
2023-02-13T21:09:34.361Z,3.65
2023-02-13T21:12:04.027Z,4.78
2023-02-13T21:14:39.664Z,3.85
2023-02-13T21:17:07.402Z,5.15
2023-02-13T21:19:34.475Z,4.75
2023-02-13T21:22:14.031Z,4.60
2023-02-13T21:24:55.173Z,5.00
2023-02-13T21:27:23.580Z,4.45
2023-02-13T21:30:31.845Z,4.85
2023-02-13T21:34:06.921Z,4.05
2023-02-13T21:36:41.219Z,4.03
2023-02-13T21:39:10.985Z,4.22
2023-02-13T21:42:05.677Z,5.47
2023-02-13T21:44:33.631Z,4.10
2023-02-13T21:47:00.654Z,4.93
2023-02-13T21:49:27.895Z,4.35
2023-02-13T21:51:54.861Z,5.32
2023-02-13T21:54:21.851Z,5.15
2023-02-13T21:56:49.075Z,6.22
2023-02-13T21:59:17.519Z,5.55
2023-02-13T22:01:58.267Z,5.60
2023-02-13T22:04:25.394Z,5.22
2023-02-13T22:06:53.114Z,5.65
2023-02-13T22:09:21.823Z,5.70
2023-02-13T22:11:51.723Z,5.82
2023-02-13T22:14:19.607Z,6.88
2023-02-13T22:16:49.265Z,5.28
2023-02-13T22:19:16.805Z,5.80
2023-02-13T22:21:44.786Z,5.88
2023-02-13T22:24:13.366Z,5.97
2023-02-13T22:26:42.629Z,5.70
2023-02-13T22:29:12.589Z,6.22
2023-02-13T22:31:40.241Z,6.72
2023-02-13T22:34:07.876Z,7.25
2023-02-13T22:36:40.312Z,6.55
2023-02-13T22:39:11.837Z,7.22
2023-02-13T22:41:39.408Z,6.97
2023-02-13T22:44:06.691Z,6.43
2023-02-13T22:46:37.668Z,7.10
2023-02-13T22:49:20.395Z,6.72
2023-02-13T22:51:53.665Z,6.35
2023-02-13T22:54:23.701Z,5.28
2023-02-13T22:56:50.812Z,6.97
2023-02-13T22:59:20.503Z,6.15
2023-02-13T23:01:47.569Z,5.70
2023-02-13T23:04:16.585Z,6.10
2023-02-13T23:06:44.021Z,5.78
2023-02-13T23:09:12.124Z,5.15
2023-02-13T23:11:57.642Z,5.82
2023-02-13T23:14:25.839Z,5.82
2023-02-13T23:17:13.913Z,5.18
2023-02-13T23:19:41.052Z,6.03
2023-02-13T23:22:08.114Z,5.43
2023-02-13T23:24:35.262Z,5.45
2023-02-13T23:27:02.531Z,5.30
2023-02-13T23:29:29.753Z,4.70
2023-02-13T23:32:00.565Z,4.82
2023-02-13T23:34:27.681Z,5.05
2023-02-13T23:36:58.717Z,5.35
2023-02-13T23:39:26.146Z,5.03
2023-02-13T23:41:53.347Z,5.80
2023-02-13T23:44:25.901Z,4.53
2023-02-13T23:46:52.998Z,5.63
2023-02-13T23:49:22.319Z,4.97
2023-02-13T23:51:49.553Z,5.10
2023-02-13T23:54:26.186Z,4.65
2023-02-13T23:56:54.877Z,4.85
2023-02-13T23:59:23.403Z,6.03
